Time;durP1;ratioP1;P1;durP2;ratioP2;P2;SDS_P1;SDS_P2;PMS_P1;PMS_P2;Temp;Humidity;BMP_temperature;BMP_pressure;BME280_temperature;BME280_humidity;BME280_pressure;Samples;Min_cycle;Max_cycle;Signal;HPM_P1;HPM_P2
2022/01/12 00:00:22;;;;;;;15.07;4.68;;;;;;;1.58;40.25;100099.78;4485098;32;20168;-83
2022/01/12 00:02:48;;;;;;;15.77;4.53;;;;;;;1.51;40.34;100104.09;4485752;32;20100;-82
2022/01/12 00:05:15;;;;;;;13.88;4.37;;;;;;;1.56;39.91;100094.59;4486847;32;20080;-82
2022/01/12 00:07:41;;;;;;;14.60;4.43;;;;;;;1.40;40.34;100097.13;4486988;32;20072;-83
2022/01/12 00:10:07;;;;;;;12.55;4.45;;;;;;;1.51;40.22;100095.44;4486867;32;20153;-83
2022/01/12 00:12:33;;;;;;;13.68;4.47;;;;;;;1.30;40.22;100089.31;4486948;32;20106;-82
2022/01/12 00:14:59;;;;;;;13.55;4.35;;;;;;;1.41;40.16;100091.94;4487045;32;20134;-83
2022/01/12 00:17:24;;;;;;;14.20;4.25;;;;;;;1.44;40.22;100091.94;4488114;31;20084;-83
2022/01/12 00:19:50;;;;;;;12.82;4.03;;;;;;;1.28;40.36;100091.03;4488225;31;20092;-83
2022/01/12 00:22:15;;;;;;;14.73;4.40;;;;;;;1.23;40.51;100089.28;4487991;32;20119;-83
2022/01/12 00:33:15;;;;;;;13.38;3.90;;;;;;;1.28;40.12;100098.81;4454135;32;20131;-83
2022/01/12 00:35:52;;;;;;;11.40;3.67;;;;;;;1.50;39.70;100098.88;4454628;32;20176;-83
2022/01/12 00:38:19;;;;;;;11.90;3.90;;;;;;;1.55;39.50;100097.19;4448594;32;20184;-82
2022/01/12 00:40:51;;;;;;;14.45;4.15;;;;;;;1.53;39.37;100098.91;4426428;32;20381;-82
2022/01/12 00:43:19;;;;;;;12.45;4.35;;;;;;;1.49;39.67;100103.22;4430634;32;20461;-83
2022/01/12 00:45:47;;;;;;;10.98;3.47;;;;;;;1.57;39.51;100106.72;4454297;32;20081;-83
2022/01/12 00:48:15;;;;;;;12.73;4.47;;;;;;;1.37;39.89;100119.63;4454368;32;20081;-82
2022/01/12 00:50:41;;;;;;;13.23;4.35;;;;;;;1.52;39.70;100115.34;4441423;32;20136;-83
2022/01/12 00:53:06;;;;;;;14.63;4.40;;;;;;;1.63;39.67;100116.25;4440528;32;20121;-83
2022/01/12 00:55:33;;;;;;;11.25;3.87;;;;;;;1.54;40.02;100117.06;4438826;32;20164;-83
2022/01/12 00:57:58;;;;;;;11.68;4.07;;;;;;;1.52;39.73;100117.94;4426080;32;20194;-83
2022/01/12 01:00:26;;;;;;;14.07;4.10;;;;;;;1.63;39.67;100118.84;4440289;32;20548;-82
2022/01/12 01:02:53;;;;;;;13.20;3.80;;;;;;;1.54;39.88;100114.47;4441425;32;20170;-83
2022/01/12 01:05:21;;;;;;;15.43;4.12;;;;;;;1.54;39.94;100114.47;4481366;32;20099;-82
2022/01/12 01:07:47;;;;;;;;;;;;;;;1.69;39.41;100112.81;4473958;32;20574;-82
2022/01/12 01:10:17;;;;;;;15.50;4.47;;;;;;;1.54;39.76;100118.81;4487723;32;19980;-82
2022/01/12 01:12:45;;;;;;;12.13;3.83;;;;;;;1.49;39.86;100116.22;4500368;31;20080;-82
2022/01/12 01:15:13;;;;;;;12.65;4.40;;;;;;;1.62;39.83;100117.09;4503069;31;20088;-83
2022/01/12 01:25:42;;;;;;;12.45;4.07;;;;;;;1.56;39.79;100114.50;4487528;32;20485;-82
2022/01/12 01:28:07;;;;;;;14.57;4.95;;;;;;;1.61;39.62;100117.12;4487595;31;20682;-81
2022/01/12 01:30:37;;;;;;;13.00;4.45;;;;;;;1.45;39.88;100118.78;4486523;32;20108;-82
2022/01/12 01:33:06;;;;;;;13.05;4.10;;;;;;;1.63;39.80;100115.37;4486496;32;20092;-82
2022/01/12 01:35:34;;;;;;;15.23;4.28;;;;;;;1.55;40.08;100117.97;4487646;31;20265;-83
2022/01/12 01:38:01;;;;;;;13.20;4.07;;;;;;;1.66;39.90;100110.19;4487532;31;20484;-82
2022/01/12 01:40:27;;;;;;;12.35;4.25;;;;;;;1.62;40.09;100119.69;4486462;32;20123;-82
2022/01/12 01:53:37;;;;;;;10.95;3.37;;;;;;;1.65;39.38;100126.66;4487654;32;20148;-81
2022/01/12 01:56:03;;;;;;;13.40;3.92;;;;;;;1.62;39.36;100124.03;4486159;32;20092;-82
2022/01/12 01:58:29;;;;;;;12.05;4.03;;;;;;;1.67;39.27;100124.94;4486178;32;20348;-82
2022/01/12 02:00:54;;;;;;;14.27;3.75;;;;;;;1.66;39.21;100126.66;4487333;31;20110;-82
2022/01/12 02:03:19;;;;;;;12.93;3.70;;;;;;;1.70;39.26;100133.59;4487316;31;20080;-82
2022/01/12 02:05:45;;;;;;;10.90;3.50;;;;;;;1.73;39.31;100133.59;4486204;32;20111;-82
2022/01/12 02:08:11;;;;;;;12.80;3.87;;;;;;;1.76;39.50;100133.62;4486203;32;20088;-82
2022/01/12 02:10:37;;;;;;;12.10;3.50;;;;;;;1.79;39.45;100134.47;4487326;31;20104;-82
2022/01/12 02:13:02;;;;;;;11.55;3.28;;;;;;;1.73;39.03;100133.59;4487246;31;20465;-81
2022/01/12 02:15:28;;;;;;;13.85;4.20;;;;;;;1.77;39.10;100135.31;4486087;32;20178;-82
2022/01/12 02:18:04;;;;;;;14.38;4.68;;;;;;;1.73;39.22;100136.19;4486139;32;20423;-82
2022/01/12 02:39:56;;;;;;;13.13;3.97;;;;;;;1.38;39.69;100128.28;4453523;32;20108;-82
2022/01/12 02:42:23;;;;;;;11.38;3.85;;;;;;;1.35;39.32;100129.13;4453654;32;20105;-81
2022/01/12 02:55:49;;;;;;;10.68;3.62;;;;;;;1.29;39.48;100129.09;4377287;32;20133;-82
2022/01/12 02:58:14;;;;;;;12.65;4.15;;;;;;;1.25;39.66;100129.09;4377156;32;20114;-82
2022/01/12 03:03:30;;;;;;;10.27;3.72;;;;;;;1.36;39.79;100130.84;4332474;33;20191;-82
2022/01/12 03:06:00;;;;;;;13.55;4.12;;;;;;;1.34;39.76;100140.38;4320630;33;20456;-82
2022/01/12 03:08:27;;;;;;;13.48;3.87;;;;;;;1.36;39.82;100135.19;4332542;33;20459;-83
2022/01/12 03:10:53;;;;;;;13.90;4.35;;;;;;;1.40;39.89;100136.94;4332485;33;20099;-83
2022/01/12 03:13:19;;;;;;;14.77;4.18;;;;;;;1.42;39.97;100134.34;4332529;33;20175;-83
2022/01/12 03:15:47;;;;;;;12.68;4.28;;;;;;;1.41;40.00;100133.50;4321129;32;20186;-82
2022/01/12 03:18:13;;;;;;;;;;;;;;;1.44;39.89;100135.22;4362453;32;20146;-82
2022/01/12 03:20:38;;;;;;;12.65;3.70;;;;;;;1.32;40.24;100142.09;4362048;32;20302;-82
2022/01/12 03:23:04;;;;;;;15.40;4.90;;;;;;;1.47;40.08;100143.00;4361975;32;20390;-83
2022/01/12 03:25:29;;;;;;;13.35;4.53;;;;;;;1.40;40.09;100141.28;4413160;32;20127;-83
2022/01/12 03:27:59;;;;;;;15.55;4.57;;;;;;;1.38;40.08;100151.66;4422437;32;20467;-83
2022/01/12 03:30:25;;;;;;;14.65;4.55;;;;;;;1.40;40.21;100149.06;4422342;32;20141;-83
2022/01/12 03:33:05;;;;;;;11.75;4.18;;;;;;;1.38;40.47;100151.66;4422182;32;20100;-83
2022/01/12 03:35:49;;;;;;;13.30;4.00;;;;;;;1.41;40.55;100148.19;4422318;32;20162;-83
2022/01/12 03:38:21;;;;;;;13.38;4.07;;;;;;;1.42;40.90;100152.53;4421975;32;20605;-83
2022/01/12 03:40:48;;;;;;;12.65;4.30;;;;;;;1.35;41.05;100156.81;4460666;32;20085;-83
2022/01/12 03:43:13;;;;;;;14.80;4.57;;;;;;;1.42;40.88;100147.34;4485202;32;20084;-83
2022/01/12 03:45:39;;;;;;;16.65;4.82;;;;;;;1.30;41.05;100150.75;4486322;31;20135;-83
2022/01/12 04:10:28;;;;;;;14.27;5.00;;;;;;;0.48;42.22;100155.37;4486146;32;20128;-83
2022/01/12 04:12:54;;;;;;;13.95;4.25;;;;;;;0.49;42.30;100144.16;4486000;32;20104;-83
2022/01/12 04:15:19;;;;;;;10.13;3.65;;;;;;;0.74;41.80;100145.22;4485903;31;20477;-83
2022/01/12 04:17:45;;;;;;;16.70;4.78;;;;;;;0.90;41.42;100143.59;4484813;32;20096;-82
2022/01/12 04:20:10;;;;;;;13.85;5.12;;;;;;;0.93;41.45;100153.13;4485871;31;20443;-83
2022/01/12 04:25:22;;;;;;;12.10;4.00;;;;;;;1.02;40.97;100154.91;4484705;32;20126;-84
2022/01/12 04:27:47;;;;;;;13.70;4.57;;;;;;;1.03;40.92;100148.87;4485694;31;20088;-83
2022/01/12 04:30:13;;;;;;;13.32;4.40;;;;;;;1.06;41.10;100146.28;4485800;31;20096;-83
2022/01/12 04:32:41;;;;;;;16.90;4.60;;;;;;;1.14;40.86;100149.78;4485757;31;20614;-84
2022/01/12 04:35:07;;;;;;;15.68;5.45;;;;;;;1.12;40.83;100156.69;4485686;31;20104;-84
2022/01/12 04:37:34;;;;;;;13.80;4.53;;;;;;;1.10;40.54;100154.09;4484542;32;20428;-83
2022/01/12 04:39:59;;;;;;;14.35;5.10;;;;;;;1.16;40.24;100142.91;4485891;31;20175;-84
2022/01/12 04:42:24;;;;;;;12.85;4.25;;;;;;;1.17;40.42;100147.22;4484663;32;20352;-83
2022/01/12 04:44:59;;;;;;;14.75;4.62;;;;;;;1.24;40.49;100153.31;4485726;31;20092;-83
2022/01/12 04:47:45;;;;;;;14.50;4.45;;;;;;;1.11;40.29;100160.16;4485778;31;20072;-83
2022/01/12 04:50:10;;;;;;;11.82;3.72;;;;;;;1.16;39.77;100153.28;4486784;31;20129;-83
2022/01/12 04:52:36;;;;;;;14.25;5.12;;;;;;;1.11;39.82;100157.56;4488089;31;20338;-83
2022/01/12 04:55:01;;;;;;;15.65;4.95;;;;;;;1.14;39.79;100158.47;4488075;31;20104;-84
2022/01/12 04:57:27;;;;;;;13.90;4.37;;;;;;;1.22;39.84;100161.09;4488130;31;20100;-84
2022/01/12 05:00:07;;;;;;;14.90;4.50;;;;;;;1.32;40.10;100164.59;4488141;31;20088;-84
2022/01/12 05:13:42;;;;;;;12.52;4.62;;;;;;;1.30;40.74;100172.37;4443245;32;20128;-82
2022/01/12 05:16:10;;;;;;;13.77;4.12;;;;;;;1.20;40.46;100173.19;4454120;32;20718;-82
2022/01/12 05:18:36;;;;;;;14.52;4.97;;;;;;;1.28;40.30;100171.50;4441246;32;20109;-82
2022/01/12 05:21:02;;;;;;;15.02;4.82;;;;;;;1.32;40.31;100175.00;4441292;32;20176;-83
2022/01/12 05:23:28;;;;;;;12.90;4.65;;;;;;;1.09;40.76;100174.84;4454066;32;20108;-84
2022/01/12 05:25:53;;;;;;;14.25;4.50;;;;;;;1.14;40.80;100179.22;4441148;32;20136;-83
2022/01/12 05:28:20;;;;;;;14.25;4.45;;;;;;;1.06;40.82;100177.41;4454091;32;20120;-84
2022/01/12 05:30:46;;;;;;;15.43;4.78;;;;;;;1.10;40.73;100173.97;4454076;32;20955;-84
2022/01/12 05:33:12;;;;;;;15.52;5.60;;;;;;;0.89;41.11;100182.47;4454006;32;20149;-84
2022/01/12 05:35:38;;;;;;;14.82;4.93;;;;;;;0.84;41.59;100189.37;4441198;32;20596;-83
2022/01/12 05:38:05;;;;;;;14.82;4.85;;;;;;;0.97;41.55;100186.03;4454151;32;20123;-83
2022/01/12 05:40:31;;;;;;;14.87;4.95;;;;;;;0.96;41.64;100184.28;4453938;32;20115;-83
2022/01/12 05:43:00;;;;;;;14.32;5.03;;;;;;;0.93;41.84;100187.72;4441135;32;20149;-83
2022/01/12 05:45:26;;;;;;;15.18;5.35;;;;;;;0.94;41.99;100184.25;4454186;32;20467;-83
2022/01/12 05:50:19;;;;;;;16.52;5.78;;;;;;;0.89;42.43;100188.56;4486246;32;20119;-83
2022/01/12 05:52:44;;;;;;;16.73;5.97;;;;;;;0.93;42.65;100189.47;4486318;32;20140;-83
2022/01/12 05:55:11;;;;;;;16.25;6.00;;;;;;;0.93;42.95;100194.66;4487441;31;20097;-83
2022/01/12 05:57:37;;;;;;;21.42;6.68;;;;;;;0.81;43.29;100200.59;4487559;31;20115;-83
2022/01/12 06:00:06;;;;;;;17.48;5.85;;;;;;;0.63;43.51;100200.47;4486271;32;20088;-82
2022/01/12 06:02:31;;;;;;;15.45;4.93;;;;;;;0.62;43.59;100203.88;4487207;31;20126;-82
2022/01/12 06:04:57;;;;;;;16.60;6.10;;;;;;;0.63;43.44;100198.72;4486232;32;20369;-83
2022/01/12 06:07:22;;;;;;;17.70;6.32;;;;;;;0.52;43.76;100211.62;4487116;31;20080;-82
2022/01/12 06:09:48;;;;;;;17.83;5.35;;;;;;;0.46;44.04;100208.06;4486132;32;20092;-83
2022/01/12 06:12:13;;;;;;;16.55;5.60;;;;;;;0.30;44.21;100217.44;4486059;32;20122;-83
2022/01/12 06:14:41;;;;;;;15.60;5.40;;;;;;;0.28;44.28;100226.91;4487348;31;20084;-83
2022/01/12 06:17:07;;;;;;;15.32;5.10;;;;;;;0.13;44.52;100232.81;4487314;31;20096;-83
2022/01/12 06:19:33;;;;;;;17.62;5.45;;;;;;;0.29;44.29;100236.41;4486086;32;20452;-83
2022/01/12 06:21:58;;;;;;;15.05;5.70;;;;;;;0.37;44.13;100235.66;4472890;32;20141;-83
2022/01/12 06:24:24;;;;;;;18.48;5.50;;;;;;;0.40;44.04;100240.00;4487205;32;20126;-83
2022/01/12 06:26:50;;;;;;;14.57;5.37;;;;;;;0.46;44.04;100249.56;4485884;32;20115;-83
2022/01/12 06:31:43;;;;;;;16.87;5.95;;;;;;;0.48;44.05;100242.66;4487266;31;20335;-83
2022/01/12 06:34:09;;;;;;;15.90;6.18;;;;;;;0.44;44.15;100246.09;4472903;32;20115;-83
2022/01/12 06:36:34;;;;;;;15.75;5.72;;;;;;;0.49;44.01;100234.91;4487160;32;20103;-82
2022/01/12 06:39:00;;;;;;;15.20;5.50;;;;;;;0.51;44.04;100240.13;4486015;32;20084;-83
2022/01/12 06:41:25;;;;;;;15.57;5.60;;;;;;;0.59;44.04;100235.84;4485894;32;20084;-83
2022/01/12 06:43:51;;;;;;;18.87;5.72;;;;;;;0.60;44.10;100245.41;4485904;32;20345;-83
2022/01/12 06:46:22;;;;;;;16.08;5.45;;;;;;;0.70;44.07;100239.44;4487095;31;20110;-83
2022/01/12 06:48:48;;;;;;;15.90;5.47;;;;;;;0.78;44.18;100242.94;4486040;32;20132;-83
2022/01/12 06:51:13;;;;;;;15.80;5.45;;;;;;;0.73;43.38;100243.75;4485845;32;20110;-82
2022/01/12 06:53:39;;;;;;;16.30;5.55;;;;;;;0.74;43.57;100255.88;4485825;32;20168;-84
2022/01/12 06:56:05;;;;;;;15.57;5.65;;;;;;;0.54;43.78;100253.97;4487239;31;20110;-84
2022/01/12 06:58:30;;;;;;;16.40;5.62;;;;;;;0.42;44.33;100255.56;4486155;32;20408;-84
2022/01/12 07:00:56;;;;;;;18.40;5.95;;;;;;;0.63;43.90;100255.78;4486063;32;20404;-85
2022/01/12 07:03:21;;;;;;;16.80;5.78;;;;;;;0.67;43.93;100254.94;4487130;31;20088;-86
2022/01/12 07:05:47;;;;;;;18.42;6.95;;;;;;;0.80;43.95;100255.94;4487064;31;20089;-84
2022/01/12 07:08:13;;;;;;;21.60;7.07;;;;;;;0.89;44.06;100257.72;4486058;32;20413;-82
2022/01/12 07:10:39;;;;;;;18.40;6.47;;;;;;;0.94;44.08;100263.84;4486873;31;20080;-82
2022/01/12 07:13:04;;;;;;;17.73;6.55;;;;;;;0.90;44.03;100262.06;4484719;32;20131;-82
2022/01/12 07:15:30;;;;;;;14.87;5.68;;;;;;;0.90;43.75;100269.84;4486539;31;20102;-83
2022/01/12 07:17:55;;;;;;;17.40;6.22;;;;;;;1.05;42.65;100269.97;4485318;32;20085;-83
2022/01/12 07:20:21;;;;;;;19.10;6.37;;;;;;;1.01;42.73;100262.19;4485736;31;20076;-81
2022/01/12 07:22:46;;;;;;;15.70;5.68;;;;;;;1.11;43.06;100266.56;4472125;32;20124;-80
2022/01/12 07:25:12;;;;;;;16.92;6.15;;;;;;;1.16;43.12;100278.72;4485958;32;20084;-85
2022/01/12 07:27:39;;;;;;;16.15;6.20;;;;;;;1.23;43.12;100276.16;4486206;32;20084;-83
2022/01/12 07:30:05;;;;;;;16.80;5.82;;;;;;;1.32;42.95;100282.28;4471946;32;20125;-83
2022/01/12 07:32:31;;;;;;;16.10;6.35;;;;;;;1.37;42.86;100283.22;4458991;32;20100;-83
2022/01/12 07:34:56;;;;;;;17.23;6.40;;;;;;;1.46;42.55;100284.97;4486563;32;20456;-83
2022/01/12 07:37:22;;;;;;;17.08;7.03;;;;;;;1.45;42.32;100297.94;4486568;32;20371;-84
2022/01/12 07:39:48;;;;;;;21.75;7.70;;;;;;;1.12;42.90;100302.03;4486362;32;20162;-84
2022/01/12 07:42:14;;;;;;;19.23;6.90;;;;;;;0.95;43.80;100299.31;4472275;32;20110;-83
2022/01/12 07:44:39;;;;;;;19.27;7.07;;;;;;;1.02;43.96;100295.03;4486231;32;20149;-83
2022/01/12 07:47:05;;;;;;;18.77;6.60;;;;;;;1.11;43.98;100302.91;4485862;32;20088;-83
2022/01/12 07:49:33;;;;;;;21.52;7.37;;;;;;;1.16;44.21;100306.41;4486212;32;20100;-84
2022/01/12 07:52:00;;;;;;;23.48;8.07;;;;;;;1.13;43.87;100309.84;4486232;32;20084;-84
2022/01/12 07:54:25;;;;;;;20.60;7.65;;;;;;;1.22;43.61;100313.34;4458649;32;20461;-84
2022/01/12 07:56:51;;;;;;;19.48;7.12;;;;;;;1.16;44.28;100320.25;4485752;32;20076;-85
2022/01/12 07:59:16;;;;;;;21.77;7.60;;;;;;;1.12;44.93;100317.59;4471405;32;20388;-84
2022/01/12 08:01:41;;;;;;;21.42;7.95;;;;;;;1.11;44.44;100323.66;4486181;32;20356;-84
2022/01/12 08:04:07;;;;;;;20.12;7.50;;;;;;;1.17;44.51;100321.13;4486135;32;20356;-83
2022/01/12 08:06:32;;;;;;;20.48;7.72;;;;;;;1.06;44.74;100326.19;4470439;32;20455;-83
2022/01/12 08:08:58;;;;;;;19.27;7.78;;;;;;;1.12;44.60;100321.09;4485940;32;20088;-84
2022/01/12 08:11:23;;;;;;;18.00;7.20;;;;;;;1.19;44.08;100319.41;4485976;32;20119;-85
2022/01/12 08:13:50;;;;;;;18.98;8.00;;;;;;;1.21;43.82;100322.88;4485945;32;20120;-83
2022/01/12 08:16:15;;;;;;;22.70;7.85;;;;;;;1.25;43.75;100329.81;4471898;32;20088;-85
2022/01/12 08:18:40;;;;;;;20.73;7.80;;;;;;;1.22;43.85;100315.94;4458570;32;20092;-86
2022/01/12 08:21:06;;;;;;;20.90;7.93;;;;;;;1.12;44.35;100320.19;4484777;32;20089;-82
2022/01/12 08:23:33;;;;;;;21.80;8.70;;;;;;;1.29;43.93;100318.59;4490986;31;20107;-82
2022/01/12 08:25:58;;;;;;;20.45;8.45;;;;;;;1.33;43.90;100329.88;4477080;32;20434;-83
2022/01/12 08:28:24;;;;;;;19.67;7.53;;;;;;;1.41;43.65;100332.53;4473495;32;20106;-84
2022/01/12 08:30:49;;;;;;;22.52;8.15;;;;;;;1.45;43.70;100339.50;4473614;32;20118;-84
2022/01/12 08:33:15;;;;;;;21.48;8.25;;;;;;;1.45;44.08;100342.97;4487957;32;20106;-84
2022/01/12 08:35:41;;;;;;;22.20;8.23;;;;;;;1.49;43.96;100349.06;4473688;32;20118;-84
2022/01/12 08:38:07;;;;;;;22.55;8.43;;;;;;;1.56;43.48;100346.53;4487844;32;20107;-84
2022/01/12 08:40:32;;;;;;;19.90;7.70;;;;;;;1.57;43.69;100357.78;4492993;31;20136;-84
2022/01/12 08:42:58;;;;;;;19.10;6.95;;;;;;;1.74;43.35;100361.38;4503706;31;20095;-85
2022/01/12 08:45:23;;;;;;;23.05;7.97;;;;;;;1.63;43.23;100360.41;4503701;31;20088;-85
2022/01/12 08:47:49;;;;;;;21.58;8.00;;;;;;;1.76;43.01;100356.19;4503618;31;20088;-85
2022/01/12 08:50:15;;;;;;;20.67;7.57;;;;;;;1.92;42.38;100354.53;4503694;31;20108;-85
2022/01/12 08:52:46;;;;;;;23.58;7.97;;;;;;;1.96;41.86;100345.91;4503681;31;20135;-86
2022/01/12 08:55:22;;;;;;;19.45;6.95;;;;;;;2.08;41.18;100339.91;4489474;31;20141;-86
2022/01/12 08:57:48;;;;;;;21.10;8.05;;;;;;;2.02;40.55;100342.47;4503706;31;20116;-85
2022/01/12 09:00:14;;;;;;;22.35;8.38;;;;;;;1.93;41.17;100351.97;4489518;31;20379;-85
2022/01/12 09:02:40;;;;;;;21.50;7.90;;;;;;;1.98;41.15;100348.50;4503882;31;20879;-85
2022/01/12 09:05:06;;;;;;;22.00;8.43;;;;;;;2.11;39.96;100345.97;4503798;31;20106;-85
2022/01/12 09:07:32;;;;;;;18.92;7.03;;;;;;;2.05;40.34;100350.25;4489392;31;20168;-85
2022/01/12 09:09:57;;;;;;;20.50;7.53;;;;;;;2.10;40.09;100346.81;4503783;31;20084;-86
2022/01/12 09:12:23;;;;;;;18.60;7.12;;;;;;;2.17;40.16;100338.22;4489013;31;20118;-86
2022/01/12 09:14:50;;;;;;;19.12;7.25;;;;;;;2.20;39.95;100341.69;4503495;31;20142;-86
2022/01/12 09:17:18;;;;;;;19.67;7.65;;;;;;;2.39;39.86;100342.63;4489362;31;20076;-85
2022/01/12 09:19:45;;;;;;;20.88;7.78;;;;;;;2.58;39.59;100346.16;4489282;31;20153;-86
2022/01/12 09:22:10;;;;;;;18.80;7.57;;;;;;;2.58;39.68;100336.63;4475919;31;20100;-86
2022/01/12 09:24:36;;;;;;;20.55;8.05;;;;;;;2.64;39.54;100335.78;4489019;31;20079;-86
2022/01/12 09:27:01;;;;;;;21.15;8.15;;;;;;;2.79;39.40;100342.75;4503190;31;20087;-85
2022/01/12 09:29:27;;;;;;;21.05;8.25;;;;;;;2.87;39.59;100338.41;4489059;31;20104;-86
2022/01/12 09:31:52;;;;;;;24.45;8.70;;;;;;;2.95;39.51;100344.50;4503357;31;20080;-86
2022/01/12 09:34:18;;;;;;;25.75;9.48;;;;;;;3.04;39.36;100341.06;4503363;31;20084;-85
2022/01/12 09:36:43;;;;;;;23.10;9.02;;;;;;;3.05;39.63;100341.06;4503164;31;20449;-85
2022/01/12 09:39:09;;;;;;;24.42;9.68;;;;;;;3.13;39.56;100334.12;4503524;31;20476;-86
2022/01/12 09:41:35;;;;;;;23.65;9.82;;;;;;;3.20;39.52;100339.31;4503594;31;20119;-85
2022/01/12 09:44:01;;;;;;;23.08;9.27;;;;;;;3.29;39.32;100344.53;4503567;31;20084;-85
2022/01/12 09:46:27;;;;;;;23.02;9.88;;;;;;;3.23;39.49;100337.59;4489202;31;20091;-85
2022/01/12 09:48:53;;;;;;;23.40;9.65;;;;;;;3.27;39.56;100341.94;4489156;31;20135;-86
2022/01/12 09:51:19;;;;;;;28.52;10.93;;;;;;;3.31;39.59;100342.81;4503534;31;20100;-86
2022/01/12 09:53:44;;;;;;;23.75;9.68;;;;;;;3.37;39.05;100331.53;4488942;31;20080;-86
2022/01/12 09:56:21;;;;;;;22.83;9.63;;;;;;;3.44;39.03;100338.44;4502981;31;20098;-86
2022/01/12 09:58:50;;;;;;;23.60;8.48;;;;;;;3.44;38.91;100338.44;4503369;31;20083;-86
2022/01/12 10:01:25;;;;;;;23.30;9.35;;;;;;;3.45;38.04;100342.78;4489235;31;20104;-85
2022/01/12 10:03:50;;;;;;;25.58;9.27;;;;;;;3.39;37.09;100340.19;4488992;31;20083;-85
2022/01/12 10:06:16;;;;;;;22.23;8.38;;;;;;;3.45;36.64;100348.00;4488790;31;20101;-86
2022/01/12 10:08:42;;;;;;;22.23;8.48;;;;;;;3.44;36.76;100348.87;4503082;31;20112;-86
2022/01/12 10:11:10;;;;;;;26.20;10.00;;;;;;;3.46;36.85;100336.72;4503205;31;20096;-86
2022/01/12 10:13:37;;;;;;;;;;;;;;;3.47;37.05;100339.31;4489079;31;20491;-86
2022/01/12 10:16:15;;;;;;;22.60;8.38;;;;;;;3.53;36.88;100338.44;4503155;31;20340;-86
2022/01/12 10:18:52;;;;;;;23.40;9.10;;;;;;;3.46;37.14;100341.94;4503126;31;20104;-86
2022/01/12 10:21:37;;;;;;;24.52;8.85;;;;;;;3.47;37.19;100344.53;4488851;31;20108;-86
2022/01/12 10:24:08;;;;;;;23.77;9.27;;;;;;;3.51;37.11;100333.22;4475640;31;20092;-86
2022/01/12 10:26:39;;;;;;;23.85;9.68;;;;;;;3.54;37.02;100334.97;4488513;31;20441;-86
2022/01/12 10:29:08;;;;;;;22.17;8.48;;;;;;;3.60;36.91;100340.19;4488819;31;20108;-86
2022/01/12 10:31:52;;;;;;;20.90;8.05;;;;;;;3.65;36.36;100338.44;4488728;31;20126;-86
2022/01/12 10:34:21;;;;;;;21.70;8.48;;;;;;;3.54;36.51;100341.06;4502964;31;20115;-86
2022/01/12 10:36:47;;;;;;;21.10;7.60;;;;;;;3.40;37.11;100339.31;4488587;31;20084;-86
2022/01/12 10:39:15;;;;;;;21.00;8.07;;;;;;;3.36;37.35;100343.66;4503026;31;20119;-86
2022/01/12 10:42:02;;;;;;;20.27;8.20;;;;;;;3.53;37.06;100339.34;4488612;31;20158;-85
2022/01/12 10:44:38;;;;;;;20.98;8.20;;;;;;;3.29;37.23;100340.19;4502928;31;20103;-86
2022/01/12 10:47:06;;;;;;;20.62;8.18;;;;;;;3.47;36.88;100335.84;4501908;31;20118;-86
2022/01/12 10:49:33;;;;;;;22.25;8.13;;;;;;;3.43;37.03;100336.72;4502797;31;20127;-86
2022/01/12 10:51:59;;;;;;;22.45;8.95;;;;;;;3.44;37.18;100333.22;4502876;31;20100;-86
2022/01/12 10:54:24;;;;;;;23.45;8.35;;;;;;;3.57;37.01;100340.16;4488485;31;20110;-86
2022/01/12 10:56:50;;;;;;;26.55;9.85;;;;;;;3.58;37.16;100334.09;4488477;31;20088;-86
2022/01/12 10:59:17;;;;;;;21.75;8.50;;;;;;;3.63;36.85;100334.97;4502732;31;20092;-85
2022/01/12 11:01:43;;;;;;;23.00;9.00;;;;;;;3.71;36.70;100328.00;4488386;31;20155;-86
2022/01/12 11:04:09;;;;;;;25.55;9.02;;;;;;;3.60;36.74;100324.53;4488526;31;20111;-86
2022/01/12 11:06:35;;;;;;;23.38;9.23;;;;;;;3.69;36.17;100321.03;4488491;31;20096;-86
2022/01/12 11:09:00;;;;;;;23.95;9.35;;;;;;;3.67;36.48;100325.37;4502888;31;20553;-86
2022/01/12 11:11:26;;;;;;;24.52;9.45;;;;;;;3.79;36.37;100322.78;4502865;31;20404;-86
2022/01/12 11:13:52;;;;;;;24.05;9.65;;;;;;;3.78;36.58;100321.03;4502918;31;20163;-86
2022/01/12 11:16:26;;;;;;;24.50;9.02;;;;;;;3.82;36.56;100333.19;4488479;31;20110;-86
2022/01/12 11:18:54;;;;;;;25.65;9.93;;;;;;;3.82;36.91;100335.78;4488533;31;20455;-85
2022/01/12 11:21:42;;;;;;;27.08;9.98;;;;;;;3.77;37.09;100339.25;4488393;31;20112;-86
2022/01/12 11:24:14;;;;;;;23.87;10.15;;;;;;;3.86;37.10;100328.81;4488231;31;20155;-86
2022/01/12 11:26:49;;;;;;;27.45;11.20;;;;;;;3.92;37.14;100326.19;4487818;31;20088;-86
2022/01/12 11:29:24;;;;;;;27.17;10.10;;;;;;;3.98;37.16;100325.31;4488204;31;20125;-86
2022/01/12 11:31:49;;;;;;;23.08;10.63;;;;;;;3.71;37.37;100330.59;4474962;31;20116;-86
2022/01/12 11:34:19;;;;;;;26.23;10.48;;;;;;;3.79;37.31;100325.37;4502439;31;20080;-86
2022/01/12 11:36:44;;;;;;;28.73;9.40;;;;;;;3.83;37.41;100327.09;4502378;31;20114;-86
2022/01/12 11:39:12;;;;;;;23.33;10.18;;;;;;;3.92;37.41;100320.97;4502240;31;20092;-86
2022/01/12 11:41:38;;;;;;;;;;;;;;;3.94;36.84;100322.75;4488307;31;20116;-86
2022/01/12 11:44:09;;;;;;;23.70;9.73;;;;;;;3.97;36.77;100321.00;4488049;31;20028;-86
2022/01/12 11:46:52;;;;;;;22.70;10.13;;;;;;;3.95;36.51;100318.37;4487944;31;20442;-86
2022/01/12 11:49:46;;;;;;;25.95;10.50;;;;;;;4.01;36.76;100312.28;4502304;31;20077;-86
2022/01/12 11:52:26;;;;;;;25.95;10.50;;;;;;;4.01;37.31;100310.53;4499646;31;20096;-86
2022/01/12 11:54:54;;;;;;;24.92;10.77;;;;;;;4.04;37.34;100309.69;4488021;31;20083;-86
2022/01/12 11:57:34;;;;;;;25.15;9.70;;;;;;;4.00;37.08;100300.09;4487835;31;20108;-86
2022/01/12 12:00:09;;;;;;;21.70;9.77;;;;;;;4.03;37.19;100302.72;4489338;31;20104;-86
2022/01/12 12:02:39;;;;;;;26.15;10.35;;;;;;;4.03;37.23;100300.97;4504244;31;20096;-86
2022/01/12 12:05:13;;;;;;;23.83;10.13;;;;;;;4.14;36.58;100304.41;4504049;31;20084;-86
2022/01/12 12:07:49;;;;;;;26.70;10.70;;;;;;;4.13;36.58;100297.47;4489705;31;20120;-86
2022/01/12 12:10:17;;;;;;;24.87;10.30;;;;;;;4.11;36.72;100303.53;4489693;31;20123;-86
2022/01/12 12:12:43;;;;;;;25.20;10.82;;;;;;;4.09;36.82;100298.31;4504013;31;20095;-86
2022/01/12 12:15:09;;;;;;;24.45;10.73;;;;;;;4.10;36.82;100299.22;4504004;31;20323;-86
2022/01/12 12:17:37;;;;;;;24.05;10.15;;;;;;;4.19;36.64;100300.91;4503835;31;20088;-86
2022/01/12 12:20:08;;;;;;;25.08;10.15;;;;;;;4.20;36.74;100298.28;4503937;31;20156;-86
2022/01/12 12:22:38;;;;;;;26.58;10.48;;;;;;;4.20;36.72;100294.84;4503905;31;20096;-86
2022/01/12 12:25:11;;;;;;;24.85;9.82;;;;;;;4.24;36.77;100307.84;4503857;31;20119;-86
2022/01/12 12:27:39;;;;;;;25.77;10.23;;;;;;;4.26;36.81;100287.81;4503807;31;20103;-86
2022/01/12 12:30:08;;;;;;;24.83;10.05;;;;;;;4.30;36.89;100292.16;4489498;31;20537;-86
2022/01/12 12:32:37;;;;;;;23.87;10.48;;;;;;;4.32;36.88;100297.38;4489557;31;20104;-86
2022/01/12 12:35:13;;;;;;;24.58;10.13;;;;;;;4.31;36.96;100300.88;4503883;31;20171;-86
2022/01/12 12:37:41;;;;;;;24.37;9.70;;;;;;;4.33;36.89;100297.38;4503848;31;20102;-86
2022/01/12 12:40:14;;;;;;;27.90;10.82;;;;;;;4.38;36.50;100305.16;4503744;31;20404;-86
2022/01/12 12:42:39;;;;;;;25.92;10.30;;;;;;;4.34;36.56;100303.44;4503782;31;20383;-86
2022/01/12 12:45:05;;;;;;;25.55;10.75;;;;;;;4.34;36.61;100306.06;4503732;31;20080;-86
2022/01/12 12:47:32;;;;;;;25.70;10.45;;;;;;;4.38;36.71;100309.53;4489251;31;20204;-86
2022/01/12 12:50:01;;;;;;;28.53;10.47;;;;;;;4.39;36.54;100306.06;4489772;31;20471;-86
2022/01/12 12:52:29;;;;;;;25.83;9.88;;;;;;;4.41;36.45;100299.09;4503904;31;20183;-86
2022/01/12 12:55:19;;;;;;;26.27;10.63;;;;;;;4.41;36.62;100299.09;4489426;31;20188;-86
2022/01/12 12:57:48;;;;;;;;;;;;;;;4.43;36.67;100292.09;4503898;31;20100;-86
2022/01/12 13:00:19;;;;;;;28.65;10.70;;;;;;;4.42;36.49;100291.22;4489723;31;20330;-86
2022/01/12 13:02:51;;;;;;;27.17;10.65;;;;;;;4.37;36.49;100292.16;4503869;31;20499;-86
2022/01/12 13:05:19;;;;;;;24.83;10.45;;;;;;;4.38;36.51;100293.88;4503652;31;20092;-86
2022/01/12 13:07:46;;;;;;;25.92;10.40;;;;;;;4.40;36.80;100294.72;4503558;31;20141;-86